sensor_id;sensor_type;location;lat;lon;timestamp;pressure;altitude;pressure_sealevel;temperature;humidity
12991;BME280;6560;57.692;11.958;2023-11-21T00:01:52;101418.41;;;17.36;nan
12991;BME280;6560;57.692;11.958;2023-11-21T00:04:17;101401.03;;;17.88;nan
12991;BME280;6560;57.692;11.958;2023-11-21T00:06:43;101410.03;;;17.90;nan
12991;BME280;6560;57.692;11.958;2023-11-21T00:09:12;101428.56;;;16.98;nan
12991;BME280;6560;57.692;11.958;2023-11-21T00:11:38;101424.72;;;17.53;nan
12991;BME280;6560;57.692;11.958;2023-11-21T00:14:04;101398.00;;;17.51;nan
12991;BME280;6560;57.692;11.958;2023-11-21T00:16:29;101424.50;;;17.19;nan
12991;BME280;6560;57.692;11.958;2023-11-21T00:18:55;101431.13;;;17.26;nan
12991;BME280;6560;57.692;11.958;2023-11-21T00:21:20;101438.72;;;17.34;nan
12991;BME280;6560;57.692;11.958;2023-11-21T00:23:46;101430.16;;;17.69;nan
12991;BME280;6560;57.692;11.958;2023-11-21T00:26:11;101428.88;;;17.48;nan
12991;BME280;6560;57.692;11.958;2023-11-21T00:28:36;101435.78;;;17.44;nan
12991;BME280;6560;57.692;11.958;2023-11-21T00:31:02;101437.94;;;18.44;nan
12991;BME280;6560;57.692;11.958;2023-11-21T00:33:29;101430.28;;;17.87;nan
12991;BME280;6560;57.692;11.958;2023-11-21T00:35:54;101442.44;;;17.82;nan
12991;BME280;6560;57.692;11.958;2023-11-21T00:38:20;101445.44;;;16.98;nan
12991;BME280;6560;57.692;11.958;2023-11-21T00:40:46;101448.28;;;17.45;nan
12991;BME280;6560;57.692;11.958;2023-11-21T00:43:11;101435.75;;;18.05;nan
12991;BME280;6560;57.692;11.958;2023-11-21T00:45:37;101456.25;;;17.75;nan
12991;BME280;6560;57.692;11.958;2023-11-21T00:48:03;101467.97;;;19.05;nan
12991;BME280;6560;57.692;11.958;2023-11-21T00:50:30;101457.53;;;18.45;nan
12991;BME280;6560;57.692;11.958;2023-11-21T00:52:55;101466.28;;;18.57;nan
12991;BME280;6560;57.692;11.958;2023-11-21T00:55:21;101471.31;;;17.89;nan
12991;BME280;6560;57.692;11.958;2023-11-21T00:57:47;101465.34;;;18.73;nan
12991;BME280;6560;57.692;11.958;2023-11-21T01:00:13;101470.97;;;18.30;nan
12991;BME280;6560;57.692;11.958;2023-11-21T01:02:43;101465.50;;;18.76;nan
12991;BME280;6560;57.692;11.958;2023-11-21T01:05:09;101471.72;;;19.08;nan
12991;BME280;6560;57.692;11.958;2023-11-21T01:07:35;101479.25;;;19.33;nan
12991;BME280;6560;57.692;11.958;2023-11-21T01:10:02;101470.00;;;19.27;nan
12991;BME280;6560;57.692;11.958;2023-11-21T01:12:28;101467.63;;;19.49;nan
12991;BME280;6560;57.692;11.958;2023-11-21T01:14:54;101467.59;;;18.65;nan
12991;BME280;6560;57.692;11.958;2023-11-21T01:17:19;101475.00;;;18.54;nan
12991;BME280;6560;57.692;11.958;2023-11-21T01:19:47;101457.88;;;18.35;nan
12991;BME280;6560;57.692;11.958;2023-11-21T01:22:13;101471.53;;;18.08;nan
12991;BME280;6560;57.692;11.958;2023-11-21T01:24:38;101469.59;;;18.69;nan
12991;BME280;6560;57.692;11.958;2023-11-21T01:27:04;101488.13;;;18.82;nan
12991;BME280;6560;57.692;11.958;2023-11-21T01:29:30;101486.88;;;17.67;nan
12991;BME280;6560;57.692;11.958;2023-11-21T01:31:55;101473.38;;;17.34;nan
12991;BME280;6560;57.692;11.958;2023-11-21T01:34:22;101498.84;;;17.44;nan
12991;BME280;6560;57.692;11.958;2023-11-21T01:36:48;101477.13;;;17.08;nan
12991;BME280;6560;57.692;11.958;2023-11-21T01:39:14;101489.91;;;16.85;nan
12991;BME280;6560;57.692;11.958;2023-11-21T01:41:41;101486.59;;;17.33;nan
12991;BME280;6560;57.692;11.958;2023-11-21T01:44:09;101496.47;;;17.19;nan
12991;BME280;6560;57.692;11.958;2023-11-21T01:46:35;101511.50;;;17.92;nan
12991;BME280;6560;57.692;11.958;2023-11-21T01:49:01;101508.03;;;17.78;nan
12991;BME280;6560;57.692;11.958;2023-11-21T01:51:26;101516.94;;;17.49;nan
12991;BME280;6560;57.692;11.958;2023-11-21T01:53:52;101505.97;;;17.01;nan
12991;BME280;6560;57.692;11.958;2023-11-21T01:56:18;101513.72;;;17.40;nan
12991;BME280;6560;57.692;11.958;2023-11-21T01:58:43;101513.19;;;17.61;nan
12991;BME280;6560;57.692;11.958;2023-11-21T02:01:09;101474.91;;;16.72;nan
12991;BME280;6560;57.692;11.958;2023-11-21T02:03:35;101525.97;;;18.12;nan
12991;BME280;6560;57.692;11.958;2023-11-21T02:06:01;101516.66;;;17.89;nan
12991;BME280;6560;57.692;11.958;2023-11-21T02:08:26;101527.53;;;17.77;nan
12991;BME280;6560;57.692;11.958;2023-11-21T02:10:52;101520.88;;;17.85;nan
12991;BME280;6560;57.692;11.958;2023-11-21T02:13:17;101526.31;;;17.87;nan
12991;BME280;6560;57.692;11.958;2023-11-21T02:15:43;101538.19;;;17.19;nan
12991;BME280;6560;57.692;11.958;2023-11-21T02:18:09;101512.84;;;18.00;nan
12991;BME280;6560;57.692;11.958;2023-11-21T02:20:36;101546.38;;;17.95;nan
12991;BME280;6560;57.692;11.958;2023-11-21T02:23:04;101525.97;;;18.43;nan
12991;BME280;6560;57.692;11.958;2023-11-21T02:25:31;101536.63;;;17.66;nan
12991;BME280;6560;57.692;11.958;2023-11-21T02:27:59;101544.13;;;18.17;nan
12991;BME280;6560;57.692;11.958;2023-11-21T02:30:25;101550.06;;;18.59;nan
12991;BME280;6560;57.692;11.958;2023-11-21T02:32:51;101545.81;;;18.62;nan
12991;BME280;6560;57.692;11.958;2023-11-21T02:35:22;101560.25;;;18.66;nan
12991;BME280;6560;57.692;11.958;2023-11-21T02:37:48;101560.09;;;18.63;nan
12991;BME280;6560;57.692;11.958;2023-11-21T02:40:13;101576.66;;;18.26;nan
12991;BME280;6560;57.692;11.958;2023-11-21T02:42:51;101560.84;;;17.84;nan
12991;BME280;6560;57.692;11.958;2023-11-21T02:45:18;101553.81;;;18.31;nan
12991;BME280;6560;57.692;11.958;2023-11-21T02:47:46;101550.13;;;18.44;nan
12991;BME280;6560;57.692;11.958;2023-11-21T02:50:12;101560.38;;;17.76;nan
12991;BME280;6560;57.692;11.958;2023-11-21T02:52:37;101584.28;;;18.04;nan
12991;BME280;6560;57.692;11.958;2023-11-21T02:55:03;101584.41;;;18.22;nan
12991;BME280;6560;57.692;11.958;2023-11-21T02:57:29;101572.09;;;18.24;nan
12991;BME280;6560;57.692;11.958;2023-11-21T02:59:55;101590.72;;;17.93;nan
12991;BME280;6560;57.692;11.958;2023-11-21T03:02:20;101591.38;;;18.04;nan
12991;BME280;6560;57.692;11.958;2023-11-21T03:04:46;101592.28;;;18.97;nan
12991;BME280;6560;57.692;11.958;2023-11-21T03:07:14;101581.72;;;17.91;nan
12991;BME280;6560;57.692;11.958;2023-11-21T03:09:40;101571.50;;;18.29;nan
12991;BME280;6560;57.692;11.958;2023-11-21T03:12:05;101570.94;;;18.51;nan
12991;BME280;6560;57.692;11.958;2023-11-21T03:14:31;101587.84;;;18.50;nan
12991;BME280;6560;57.692;11.958;2023-11-21T03:16:56;101593.47;;;18.71;nan
12991;BME280;6560;57.692;11.958;2023-11-21T03:19:22;101589.59;;;19.13;nan
12991;BME280;6560;57.692;11.958;2023-11-21T03:21:48;101617.41;;;17.64;nan
12991;BME280;6560;57.692;11.958;2023-11-21T03:24:14;101606.75;;;17.78;nan
12991;BME280;6560;57.692;11.958;2023-11-21T03:26:44;101580.44;;;17.12;nan
12991;BME280;6560;57.692;11.958;2023-11-21T03:29:10;101584.09;;;18.32;nan
12991;BME280;6560;57.692;11.958;2023-11-21T03:31:35;101607.63;;;18.23;nan
12991;BME280;6560;57.692;11.958;2023-11-21T03:34:01;101616.94;;;18.00;nan
12991;BME280;6560;57.692;11.958;2023-11-21T03:36:27;101604.66;;;18.18;nan
12991;BME280;6560;57.692;11.958;2023-11-21T03:38:52;101617.47;;;18.55;nan
12991;BME280;6560;57.692;11.958;2023-11-21T03:41:18;101620.38;;;18.43;nan
12991;BME280;6560;57.692;11.958;2023-11-21T03:43:43;101620.44;;;19.23;nan
12991;BME280;6560;57.692;11.958;2023-11-21T03:46:09;101631.16;;;18.76;nan
12991;BME280;6560;57.692;11.958;2023-11-21T03:48:35;101635.69;;;18.93;nan
12991;BME280;6560;57.692;11.958;2023-11-21T03:51:00;101618.34;;;19.01;nan
12991;BME280;6560;57.692;11.958;2023-11-21T03:53:26;101630.03;;;19.68;nan
12991;BME280;6560;57.692;11.958;2023-11-21T03:55:51;101617.06;;;19.27;nan
12991;BME280;6560;57.692;11.958;2023-11-21T03:58:17;101648.84;;;19.53;nan
12991;BME280;6560;57.692;11.958;2023-11-21T04:00:42;101652.22;;;18.86;nan
12991;BME280;6560;57.692;11.958;2023-11-21T04:03:08;101651.09;;;18.66;nan
12991;BME280;6560;57.692;11.958;2023-11-21T04:05:33;101649.09;;;18.32;nan
12991;BME280;6560;57.692;11.958;2023-11-21T04:07:59;101655.53;;;18.51;nan
12991;BME280;6560;57.692;11.958;2023-11-21T04:10:24;101667.31;;;18.85;nan
12991;BME280;6560;57.692;11.958;2023-11-21T04:12:50;101650.16;;;18.96;nan
12991;BME280;6560;57.692;11.958;2023-11-21T04:15:15;101642.34;;;18.68;nan
12991;BME280;6560;57.692;11.958;2023-11-21T04:17:41;101671.44;;;18.04;nan
12991;BME280;6560;57.692;11.958;2023-11-21T04:20:08;101675.66;;;18.75;nan
12991;BME280;6560;57.692;11.958;2023-11-21T04:22:39;101656.22;;;17.88;nan
12991;BME280;6560;57.692;11.958;2023-11-21T04:25:14;101648.69;;;18.10;nan
12991;BME280;6560;57.692;11.958;2023-11-21T04:27:40;101681.91;;;19.06;nan
12991;BME280;6560;57.692;11.958;2023-11-21T04:30:06;101679.28;;;18.61;nan
12991;BME280;6560;57.692;11.958;2023-11-21T04:32:33;101675.31;;;18.69;nan
12991;BME280;6560;57.692;11.958;2023-11-21T04:34:58;101657.13;;;17.46;nan
12991;BME280;6560;57.692;11.958;2023-11-21T04:37:23;101662.84;;;16.68;nan
12991;BME280;6560;57.692;11.958;2023-11-21T04:39:49;101679.13;;;17.42;nan
12991;BME280;6560;57.692;11.958;2023-11-21T04:42:15;101703.44;;;17.33;nan
12991;BME280;6560;57.692;11.958;2023-11-21T04:44:40;101690.91;;;17.60;nan
12991;BME280;6560;57.692;11.958;2023-11-21T04:47:06;101701.50;;;17.72;nan
12991;BME280;6560;57.692;11.958;2023-11-21T04:49:33;101648.66;;;17.24;nan
12991;BME280;6560;57.692;11.958;2023-11-21T04:51:58;101701.69;;;18.19;nan
12991;BME280;6560;57.692;11.958;2023-11-21T04:54:24;101707.97;;;18.05;nan
12991;BME280;6560;57.692;11.958;2023-11-21T04:56:49;101699.38;;;16.97;nan
12991;BME280;6560;57.692;11.958;2023-11-21T04:59:15;101722.75;;;17.85;nan
12991;BME280;6560;57.692;11.958;2023-11-21T05:01:41;101722.38;;;17.51;nan
12991;BME280;6560;57.692;11.958;2023-11-21T05:04:06;101737.88;;;16.23;nan
12991;BME280;6560;57.692;11.958;2023-11-21T05:06:34;101733.69;;;17.06;nan
12991;BME280;6560;57.692;11.958;2023-11-21T05:08:59;101735.75;;;16.97;nan
12991;BME280;6560;57.692;11.958;2023-11-21T05:11:28;101755.34;;;17.38;nan
12991;BME280;6560;57.692;11.958;2023-11-21T05:13:54;101746.94;;;17.32;nan
12991;BME280;6560;57.692;11.958;2023-11-21T05:16:21;101742.72;;;16.68;nan
12991;BME280;6560;57.692;11.958;2023-11-21T05:18:47;101763.41;;;16.99;nan
12991;BME280;6560;57.692;11.958;2023-11-21T05:21:13;101761.94;;;17.58;nan
12991;BME280;6560;57.692;11.958;2023-11-21T05:23:38;101769.88;;;17.84;nan
12991;BME280;6560;57.692;11.958;2023-11-21T05:26:05;101748.31;;;17.81;nan
12991;BME280;6560;57.692;11.958;2023-11-21T05:28:30;101774.47;;;18.02;nan
12991;BME280;6560;57.692;11.958;2023-11-21T05:30:55;101778.75;;;18.27;nan
12991;BME280;6560;57.692;11.958;2023-11-21T05:33:21;101787.31;;;17.79;nan
12991;BME280;6560;57.692;11.958;2023-11-21T05:35:46;101784.41;;;17.07;nan
12991;BME280;6560;57.692;11.958;2023-11-21T05:38:14;101799.03;;;17.14;nan
12991;BME280;6560;57.692;11.958;2023-11-21T05:40:39;101795.69;;;16.77;nan
12991;BME280;6560;57.692;11.958;2023-11-21T05:43:05;101788.41;;;17.01;nan
12991;BME280;6560;57.692;11.958;2023-11-21T05:45:30;101800.19;;;17.59;nan
12991;BME280;6560;57.692;11.958;2023-11-21T05:47:58;101803.91;;;16.80;nan
12991;BME280;6560;57.692;11.958;2023-11-21T05:50:23;101818.53;;;17.54;nan
12991;BME280;6560;57.692;11.958;2023-11-21T05:52:50;101818.09;;;15.91;nan
12991;BME280;6560;57.692;11.958;2023-11-21T05:55:16;101792.03;;;15.38;nan
12991;BME280;6560;57.692;11.958;2023-11-21T05:57:43;101834.81;;;15.77;nan
12991;BME280;6560;57.692;11.958;2023-11-21T06:00:12;101807.34;;;15.29;nan
12991;BME280;6560;57.692;11.958;2023-11-21T06:02:45;101824.22;;;16.15;nan
12991;BME280;6560;57.692;11.958;2023-11-21T06:05:12;101817.06;;;15.89;nan
12991;BME280;6560;57.692;11.958;2023-11-21T06:07:38;101836.34;;;15.74;nan
12991;BME280;6560;57.692;11.958;2023-11-21T06:10:04;101841.44;;;16.58;nan
12991;BME280;6560;57.692;11.958;2023-11-21T06:12:38;101845.59;;;17.06;nan
12991;BME280;6560;57.692;11.958;2023-11-21T06:15:05;101847.00;;;16.61;nan
12991;BME280;6560;57.692;11.958;2023-11-21T06:17:34;101848.44;;;16.69;nan
12991;BME280;6560;57.692;11.958;2023-11-21T06:20:02;101859.00;;;17.21;nan
12991;BME280;6560;57.692;11.958;2023-11-21T06:22:37;101824.88;;;17.15;nan
12991;BME280;6560;57.692;11.958;2023-11-21T06:25:03;101869.00;;;16.59;nan
12991;BME280;6560;57.692;11.958;2023-11-21T06:27:33;101887.06;;;15.77;nan
12991;BME280;6560;57.692;11.958;2023-11-21T06:29:59;101875.41;;;17.00;nan
12991;BME280;6560;57.692;11.958;2023-11-21T06:32:25;101883.00;;;16.56;nan
12991;BME280;6560;57.692;11.958;2023-11-21T06:34:51;101889.28;;;16.32;nan
12991;BME280;6560;57.692;11.958;2023-11-21T06:37:20;101884.63;;;17.45;nan
12991;BME280;6560;57.692;11.958;2023-11-21T06:39:48;101875.34;;;17.12;nan
12991;BME280;6560;57.692;11.958;2023-11-21T06:42:14;101881.25;;;16.57;nan
12991;BME280;6560;57.692;11.958;2023-11-21T06:44:40;101890.91;;;17.86;nan
12991;BME280;6560;57.692;11.958;2023-11-21T06:47:07;101910.63;;;16.70;nan
12991;BME280;6560;57.692;11.958;2023-11-21T06:49:32;101918.38;;;17.18;nan
12991;BME280;6560;57.692;11.958;2023-11-21T06:51:58;101921.56;;;17.52;nan
12991;BME280;6560;57.692;11.958;2023-11-21T06:54:26;101915.97;;;15.84;nan
12991;BME280;6560;57.692;11.958;2023-11-21T06:56:51;101927.16;;;16.91;nan
12991;BME280;6560;57.692;11.958;2023-11-21T06:59:18;101919.72;;;16.60;nan
12991;BME280;6560;57.692;11.958;2023-11-21T07:01:44;101918.97;;;17.27;nan
12991;BME280;6560;57.692;11.958;2023-11-21T07:04:09;101919.84;;;16.75;nan
12991;BME280;6560;57.692;11.958;2023-11-21T07:06:35;101931.66;;;16.54;nan
12991;BME280;6560;57.692;11.958;2023-11-21T07:09:00;101921.44;;;16.98;nan
12991;BME280;6560;57.692;11.958;2023-11-21T07:11:27;101900.72;;;16.56;nan
12991;BME280;6560;57.692;11.958;2023-11-21T07:13:52;101940.38;;;16.89;nan
12991;BME280;6560;57.692;11.958;2023-11-21T07:16:18;101940.66;;;16.31;nan
12991;BME280;6560;57.692;11.958;2023-11-21T07:18:44;101932.00;;;17.09;nan
12991;BME280;6560;57.692;11.958;2023-11-21T07:21:10;101918.34;;;16.79;nan
12991;BME280;6560;57.692;11.958;2023-11-21T07:23:37;101944.00;;;17.29;nan
12991;BME280;6560;57.692;11.958;2023-11-21T07:26:03;101956.56;;;16.79;nan
12991;BME280;6560;57.692;11.958;2023-11-21T07:28:34;101941.72;;;16.96;nan
12991;BME280;6560;57.692;11.958;2023-11-21T07:30:59;101955.88;;;17.21;nan
12991;BME280;6560;57.692;11.958;2023-11-21T07:33:25;101972.91;;;18.02;nan
12991;BME280;6560;57.692;11.958;2023-11-21T07:35:51;101938.47;;;17.13;nan
12991;BME280;6560;57.692;11.958;2023-11-21T07:38:17;101943.91;;;17.41;nan
12991;BME280;6560;57.692;11.958;2023-11-21T07:40:43;101962.28;;;17.63;nan
12991;BME280;6560;57.692;11.958;2023-11-21T07:43:08;101979.28;;;18.04;nan
12991;BME280;6560;57.692;11.958;2023-11-21T07:45:35;101952.22;;;17.32;nan
12991;BME280;6560;57.692;11.958;2023-11-21T07:48:01;101975.91;;;17.67;nan
12991;BME280;6560;57.692;11.958;2023-11-21T07:50:28;101969.31;;;17.23;nan
12991;BME280;6560;57.692;11.958;2023-11-21T07:52:54;101975.63;;;17.63;nan
12991;BME280;6560;57.692;11.958;2023-11-21T07:55:20;101991.69;;;16.73;nan
12991;BME280;6560;57.692;11.958;2023-11-21T07:57:45;101948.94;;;17.36;nan
12991;BME280;6560;57.692;11.958;2023-11-21T08:00:11;101990.91;;;17.78;nan
12991;BME280;6560;57.692;11.958;2023-11-21T08:02:38;101985.41;;;16.12;nan
12991;BME280;6560;57.692;11.958;2023-11-21T08:05:05;101992.72;;;16.89;nan
12991;BME280;6560;57.692;11.958;2023-11-21T08:07:33;101975.19;;;17.57;nan
12991;BME280;6560;57.692;11.958;2023-11-21T08:09:58;102002.03;;;17.33;nan
12991;BME280;6560;57.692;11.958;2023-11-21T08:12:23;101996.41;;;17.55;nan
12991;BME280;6560;57.692;11.958;2023-11-21T08:14:49;101995.28;;;17.25;nan
12991;BME280;6560;57.692;11.958;2023-11-21T08:17:14;102006.78;;;17.50;nan
12991;BME280;6560;57.692;11.958;2023-11-21T08:19:40;102002.00;;;17.20;nan
12991;BME280;6560;57.692;11.958;2023-11-21T08:22:06;101999.31;;;17.07;nan
12991;BME280;6560;57.692;11.958;2023-11-21T08:24:33;102006.31;;;16.67;nan
12991;BME280;6560;57.692;11.958;2023-11-21T08:26:58;102016.19;;;17.19;nan
12991;BME280;6560;57.692;11.958;2023-11-21T08:29:24;102022.03;;;17.40;nan
12991;BME280;6560;57.692;11.958;2023-11-21T08:31:49;102028.97;;;17.76;nan
12991;BME280;6560;57.692;11.958;2023-11-21T08:34:15;102026.28;;;18.02;nan
12991;BME280;6560;57.692;11.958;2023-11-21T08:36:43;102027.22;;;17.89;nan
12991;BME280;6560;57.692;11.958;2023-11-21T08:39:09;102029.19;;;18.33;nan
12991;BME280;6560;57.692;11.958;2023-11-21T08:41:38;102009.47;;;17.64;nan
12991;BME280;6560;57.692;11.958;2023-11-21T08:44:04;102031.41;;;17.08;nan
12991;BME280;6560;57.692;11.958;2023-11-21T08:46:33;102033.31;;;16.60;nan
12991;BME280;6560;57.692;11.958;2023-11-21T08:49:01;102033.22;;;16.96;nan
12991;BME280;6560;57.692;11.958;2023-11-21T08:51:26;102048.56;;;17.12;nan
12991;BME280;6560;57.692;11.958;2023-11-21T08:53:53;102035.66;;;17.18;nan
12991;BME280;6560;57.692;11.958;2023-11-21T08:56:19;102051.03;;;17.22;nan
12991;BME280;6560;57.692;11.958;2023-11-21T08:58:45;102050.97;;;17.47;nan
12991;BME280;6560;57.692;11.958;2023-11-21T09:01:12;102067.25;;;18.70;nan
12991;BME280;6560;57.692;11.958;2023-11-21T09:03:38;102073.41;;;17.88;nan
12991;BME280;6560;57.692;11.958;2023-11-21T09:06:04;102069.00;;;16.75;nan
12991;BME280;6560;57.692;11.958;2023-11-21T09:08:30;102071.84;;;18.05;nan
12991;BME280;6560;57.692;11.958;2023-11-21T09:10:55;102075.72;;;17.06;nan
12991;BME280;6560;57.692;11.958;2023-11-21T09:13:21;102073.19;;;16.71;nan
12991;BME280;6560;57.692;11.958;2023-11-21T09:15:46;102083.16;;;17.75;nan
12991;BME280;6560;57.692;11.958;2023-11-21T09:18:15;102056.34;;;18.00;nan
12991;BME280;6560;57.692;11.958;2023-11-21T09:20:41;102085.72;;;17.35;nan
12991;BME280;6560;57.692;11.958;2023-11-21T09:23:09;102093.44;;;17.44;nan
12991;BME280;6560;57.692;11.958;2023-11-21T09:25:34;102101.31;;;16.80;nan
12991;BME280;6560;57.692;11.958;2023-11-21T09:28:00;102096.44;;;16.74;nan
12991;BME280;6560;57.692;11.958;2023-11-21T09:30:26;102061.88;;;16.62;nan
12991;BME280;6560;57.692;11.958;2023-11-21T09:32:51;102108.44;;;16.44;nan
12991;BME280;6560;57.692;11.958;2023-11-21T09:35:17;102107.09;;;17.48;nan
12991;BME280;6560;57.692;11.958;2023-11-21T09:37:44;102096.41;;;18.54;nan
12991;BME280;6560;57.692;11.958;2023-11-21T09:40:11;102114.75;;;18.08;nan
12991;BME280;6560;57.692;11.958;2023-11-21T09:42:55;102099.38;;;17.78;nan
12991;BME280;6560;57.692;11.958;2023-11-21T09:45:26;102115.75;;;18.63;nan
12991;BME280;6560;57.692;11.958;2023-11-21T09:47:56;102119.69;;;18.28;nan
12991;BME280;6560;57.692;11.958;2023-11-21T09:50:23;102100.44;;;18.60;nan
12991;BME280;6560;57.692;11.958;2023-11-21T09:55:18;102137.03;;;18.09;nan
12991;BME280;6560;57.692;11.958;2023-11-21T09:57:47;102127.81;;;18.04;nan
12991;BME280;6560;57.692;11.958;2023-11-21T10:00:14;102128.72;;;19.13;nan
12991;BME280;6560;57.692;11.958;2023-11-21T10:02:43;102115.66;;;18.35;nan
12991;BME280;6560;57.692;11.958;2023-11-21T10:05:09;102138.75;;;17.69;nan
12991;BME280;6560;57.692;11.958;2023-11-21T10:07:39;102129.44;;;18.28;nan
12991;BME280;6560;57.692;11.958;2023-11-21T10:10:06;102160.09;;;19.15;nan
12991;BME280;6560;57.692;11.958;2023-11-21T10:12:33;102137.16;;;18.23;nan
12991;BME280;6560;57.692;11.958;2023-11-21T10:15:02;102153.34;;;18.40;nan
12991;BME280;6560;57.692;11.958;2023-11-21T10:17:31;102158.69;;;18.66;nan
12991;BME280;6560;57.692;11.958;2023-11-21T10:20:05;102156.94;;;18.53;nan
12991;BME280;6560;57.692;11.958;2023-11-21T10:22:40;102157.13;;;18.83;nan
12991;BME280;6560;57.692;11.958;2023-11-21T10:25:10;102165.19;;;18.43;nan
12991;BME280;6560;57.692;11.958;2023-11-21T10:27:38;102166.28;;;18.07;nan
12991;BME280;6560;57.692;11.958;2023-11-21T10:30:06;102176.78;;;18.30;nan
12991;BME280;6560;57.692;11.958;2023-11-21T10:32:31;102156.25;;;18.56;nan
12991;BME280;6560;57.692;11.958;2023-11-21T10:34:59;102167.50;;;18.52;nan
12991;BME280;6560;57.692;11.958;2023-11-21T10:37:32;102176.44;;;18.52;nan
12991;BME280;6560;57.692;11.958;2023-11-21T10:40:00;102179.06;;;18.24;nan
12991;BME280;6560;57.692;11.958;2023-11-21T10:42:26;102167.50;;;18.78;nan
12991;BME280;6560;57.692;11.958;2023-11-21T10:44:55;102185.16;;;19.17;nan
12991;BME280;6560;57.692;11.958;2023-11-21T10:47:20;102178.13;;;17.98;nan
12991;BME280;6560;57.692;11.958;2023-11-21T10:49:51;102144.00;;;18.33;nan
12991;BME280;6560;57.692;11.958;2023-11-21T10:52:19;102193.25;;;18.63;nan
12991;BME280;6560;57.692;11.958;2023-11-21T10:54:46;102201.09;;;18.88;nan
12991;BME280;6560;57.692;11.958;2023-11-21T10:57:14;102192.38;;;19.46;nan
12991;BME280;6560;57.692;11.958;2023-11-21T10:59:42;102189.03;;;19.07;nan
12991;BME280;6560;57.692;11.958;2023-11-21T11:02:28;102206.00;;;19.78;nan
12991;BME280;6560;57.692;11.958;2023-11-21T11:04:58;102219.38;;;19.36;nan
12991;BME280;6560;57.692;11.958;2023-11-21T11:07:27;102217.88;;;19.54;nan
12991;BME280;6560;57.692;11.958;2023-11-21T11:09:54;102214.31;;;19.68;nan
12991;BME280;6560;57.692;11.958;2023-11-21T11:12:20;102189.38;;;19.55;nan
12991;BME280;6560;57.692;11.958;2023-11-21T11:14:46;102211.34;;;19.64;nan
12991;BME280;6560;57.692;11.958;2023-11-21T11:17:13;102199.78;;;19.37;nan
12991;BME280;6560;57.692;11.958;2023-11-21T11:19:39;102189.41;;;18.73;nan
12991;BME280;6560;57.692;11.958;2023-11-21T11:22:59;102208.63;;;18.54;nan
12991;BME280;6560;57.692;11.958;2023-11-21T11:28:37;102238.75;;;19.60;nan
12991;BME280;6560;57.692;11.958;2023-11-21T11:31:14;102225.88;;;19.26;nan
12991;BME280;6560;57.692;11.958;2023-11-21T11:34:13;102227.94;;;19.58;nan
12991;BME280;6560;57.692;11.958;2023-11-21T11:37:00;102240.50;;;19.59;nan
12991;BME280;6560;57.692;11.958;2023-11-21T11:39:34;102207.97;;;18.84;nan
12991;BME280;6560;57.692;11.958;2023-11-21T11:42:02;102225.94;;;19.00;nan
12991;BME280;6560;57.692;11.958;2023-11-21T11:47:28;102231.84;;;18.55;nan
12991;BME280;6560;57.692;11.958;2023-11-21T11:50:00;102219.84;;;19.16;nan
12991;BME280;6560;57.692;11.958;2023-11-21T11:52:45;102221.13;;;19.78;nan
12991;BME280;6560;57.692;11.958;2023-11-21T11:55:12;102231.66;;;19.89;nan
12991;BME280;6560;57.692;11.958;2023-11-21T11:57:45;102237.97;;;19.75;nan
12991;BME280;6560;57.692;11.958;2023-11-21T12:00:19;102236.69;;;18.74;nan
12991;BME280;6560;57.692;11.958;2023-11-21T12:02:49;102241.63;;;19.22;nan
12991;BME280;6560;57.692;11.958;2023-11-21T12:05:16;102223.00;;;18.82;nan
12991;BME280;6560;57.692;11.958;2023-11-21T12:07:50;102223.94;;;18.83;nan
12991;BME280;6560;57.692;11.958;2023-11-21T12:10:21;102252.56;;;18.19;nan
12991;BME280;6560;57.692;11.958;2023-11-21T12:12:59;102238.84;;;18.66;nan
12991;BME280;6560;57.692;11.958;2023-11-21T12:15:25;102254.13;;;18.29;nan
12991;BME280;6560;57.692;11.958;2023-11-21T12:17:52;102245.88;;;18.13;nan
12991;BME280;6560;57.692;11.958;2023-11-21T12:20:19;102237.94;;;17.38;nan
12991;BME280;6560;57.692;11.958;2023-11-21T12:22:46;102246.69;;;18.12;nan
12991;BME280;6560;57.692;11.958;2023-11-21T12:25:14;102243.47;;;18.68;nan
12991;BME280;6560;57.692;11.958;2023-11-21T12:27:42;102225.78;;;17.55;nan
12991;BME280;6560;57.692;11.958;2023-11-21T12:30:08;102251.03;;;18.23;nan
12991;BME280;6560;57.692;11.958;2023-11-21T12:32:39;102266.22;;;17.36;nan
12991;BME280;6560;57.692;11.958;2023-11-21T12:35:06;102234.88;;;17.09;nan
12991;BME280;6560;57.692;11.958;2023-11-21T12:37:32;102265.91;;;17.20;nan
12991;BME280;6560;57.692;11.958;2023-11-21T12:39:57;102239.03;;;17.78;nan
12991;BME280;6560;57.692;11.958;2023-11-21T12:42:23;102259.75;;;17.21;nan
12991;BME280;6560;57.692;11.958;2023-11-21T12:45:09;102258.44;;;17.03;nan
12991;BME280;6560;57.692;11.958;2023-11-21T12:47:44;102266.94;;;17.22;nan
12991;BME280;6560;57.692;11.958;2023-11-21T12:50:19;102230.72;;;17.01;nan
12991;BME280;6560;57.692;11.958;2023-11-21T12:52:49;102256.97;;;16.71;nan
12991;BME280;6560;57.692;11.958;2023-11-21T12:55:20;102269.03;;;16.66;nan
12991;BME280;6560;57.692;11.958;2023-11-21T12:57:54;102261.34;;;16.83;nan
12991;BME280;6560;57.692;11.958;2023-11-21T13:00:30;102259.66;;;16.71;nan
12991;BME280;6560;57.692;11.958;2023-11-21T13:02:58;102254.34;;;17.20;nan
12991;BME280;6560;57.692;11.958;2023-11-21T13:05:33;102239.38;;;17.22;nan
12991;BME280;6560;57.692;11.958;2023-11-21T13:08:01;102250.94;;;16.86;nan
12991;BME280;6560;57.692;11.958;2023-11-21T13:10:29;102275.13;;;16.89;nan
12991;BME280;6560;57.692;11.958;2023-11-21T13:13:00;102283.22;;;16.44;nan
12991;BME280;6560;57.692;11.958;2023-11-21T13:15:29;102288.69;;;16.57;nan
12991;BME280;6560;57.692;11.958;2023-11-21T13:17:57;102272.03;;;16.71;nan
12991;BME280;6560;57.692;11.958;2023-11-21T13:20:23;102274.75;;;17.19;nan